createdAt,value
2019-03-24T00:00:37.897Z,315.78
2019-03-24T00:01:41.380Z,317.01
2019-03-24T00:02:37.892Z,319.16
2019-03-24T00:03:37.864Z,318.81
2019-03-24T00:04:37.859Z,318.27
2019-03-24T00:05:37.841Z,319.40
2019-03-24T00:06:37.849Z,318.79
2019-03-24T00:07:37.828Z,318.13
2019-03-24T00:08:37.799Z,316.77
2019-03-24T00:09:37.799Z,316.31
2019-03-24T00:10:37.796Z,316.49
2019-03-24T00:11:37.795Z,317.73
2019-03-24T00:12:37.759Z,317.85
2019-03-24T00:13:37.755Z,314.58
2019-03-24T00:14:37.744Z,316.11
2019-03-24T00:15:37.737Z,314.85
2019-03-24T00:16:37.734Z,314.32
2019-03-24T00:17:37.703Z,314.36
2019-03-24T00:18:37.686Z,314.06
2019-03-24T00:19:37.682Z,315.06
2019-03-24T00:20:37.671Z,315.15
2019-03-24T00:21:37.664Z,314.99
2019-03-24T00:22:37.681Z,314.20
2019-03-24T00:23:37.646Z,314.63
2019-03-24T00:24:37.621Z,315.49
2019-03-24T00:25:37.613Z,313.88
2019-03-24T00:26:37.605Z,312.81
2019-03-24T00:27:37.624Z,312.94
2019-03-24T00:28:37.582Z,311.96
2019-03-24T00:29:37.582Z,311.99
2019-03-24T00:30:37.557Z,311.96
2019-03-24T00:31:37.543Z,311.51
2019-03-24T00:32:37.626Z,311.07
2019-03-24T00:33:37.532Z,310.10
2019-03-24T00:34:37.524Z,309.36
2019-03-24T00:35:37.524Z,309.42
2019-03-24T00:36:37.488Z,308.90
2019-03-24T00:37:37.519Z,307.95
2019-03-24T00:38:37.495Z,308.84
2019-03-24T00:39:37.457Z,308.60
2019-03-24T00:40:37.460Z,308.04
2019-03-24T00:41:37.443Z,307.60
2019-03-24T00:42:37.450Z,308.81
2019-03-24T00:43:37.414Z,307.23
2019-03-24T00:44:37.407Z,307.65
2019-03-24T00:45:37.420Z,306.91
2019-03-24T00:46:37.375Z,302.26
2019-03-24T00:47:37.394Z,302.40
2019-03-24T00:48:37.355Z,301.76
2019-03-24T00:49:37.364Z,301.56
2019-03-24T00:50:37.368Z,301.91
2019-03-24T00:51:37.331Z,302.48
2019-03-24T00:52:37.336Z,302.47
2019-03-24T00:53:37.320Z,302.25
2019-03-24T00:54:37.293Z,302.64
2019-03-24T00:55:37.283Z,302.50
2019-03-24T00:56:37.275Z,308.52
2019-03-24T00:57:37.727Z,302.96
2019-03-24T00:58:37.252Z,302.48
2019-03-24T00:59:37.246Z,302.28
2019-03-24T01:00:37.250Z,302.48
2019-03-24T01:01:37.214Z,302.42
2019-03-24T01:02:37.241Z,302.63
2019-03-24T01:03:37.190Z,308.59
2019-03-24T01:04:37.191Z,302.53
2019-03-24T01:05:37.177Z,308.61
2019-03-24T01:06:37.164Z,308.86
2019-03-24T01:07:37.182Z,309.00
2019-03-24T01:08:37.138Z,303.78
2019-03-24T01:09:37.170Z,309.09
2019-03-24T01:10:37.115Z,303.35
2019-03-24T01:11:37.099Z,309.45
2019-03-24T01:12:37.101Z,302.99
2019-03-24T01:13:37.118Z,302.70
2019-03-24T01:14:37.077Z,303.13
2019-03-24T01:15:47.137Z,302.88
2019-03-24T01:16:38.052Z,303.33
2019-03-24T01:17:37.035Z,308.42
2019-03-24T01:18:37.051Z,308.95
2019-03-24T01:19:37.022Z,307.97
2019-03-24T01:20:37.011Z,309.23
2019-03-24T01:21:36.997Z,308.36
2019-03-24T01:22:36.982Z,309.17
2019-03-24T01:23:36.997Z,308.72
2019-03-24T01:24:36.962Z,308.53
2019-03-24T01:25:36.956Z,309.14
2019-03-24T01:26:36.963Z,309.48
2019-03-24T01:27:36.927Z,309.64
2019-03-24T01:28:36.923Z,309.02
2019-03-24T01:29:36.905Z,309.25
2019-03-24T01:30:36.898Z,309.47
2019-03-24T01:31:36.886Z,309.93
2019-03-24T01:32:36.884Z,309.51
2019-03-24T01:33:36.885Z,309.90
2019-03-24T01:34:36.864Z,309.72
2019-03-24T01:35:36.838Z,310.25
2019-03-24T01:36:36.831Z,310.24
2019-03-24T01:37:36.831Z,309.41
2019-03-24T01:38:36.819Z,309.49
2019-03-24T01:39:36.798Z,309.49
2019-03-24T01:40:36.777Z,303.62
2019-03-24T01:41:36.775Z,308.89
2019-03-24T01:42:36.765Z,303.42
2019-03-24T01:43:36.786Z,309.45
2019-03-24T01:44:36.735Z,303.48
2019-03-24T01:45:36.738Z,309.66
2019-03-24T01:46:36.719Z,304.03
2019-03-24T01:47:36.708Z,303.79
2019-03-24T01:48:36.695Z,304.00
2019-03-24T01:49:36.695Z,309.60
2019-03-24T01:50:36.660Z,309.94
2019-03-24T01:51:36.665Z,310.29
2019-03-24T01:52:36.663Z,304.55
2019-03-24T01:53:36.652Z,310.77
2019-03-24T01:54:36.647Z,310.61
2019-03-24T01:55:36.626Z,310.25
2019-03-24T01:56:36.605Z,310.82
2019-03-24T01:57:36.595Z,310.65
2019-03-24T01:58:36.582Z,310.60
2019-03-24T01:59:36.599Z,310.90
2019-03-24T02:00:36.562Z,305.52
2019-03-24T02:01:36.582Z,305.92
2019-03-24T02:02:36.542Z,306.32
2019-03-24T02:03:36.540Z,312.85
2019-03-24T02:04:36.539Z,307.34
2019-03-24T02:05:36.496Z,306.91
2019-03-24T02:06:38.588Z,306.14
2019-03-24T02:07:36.500Z,312.22
2019-03-24T02:08:36.472Z,312.58
2019-03-24T02:09:36.489Z,312.07
2019-03-24T02:10:36.468Z,305.90
2019-03-24T02:11:36.440Z,307.52
2019-03-24T02:12:36.435Z,308.39
2019-03-24T02:13:36.416Z,316.31
2019-03-24T02:14:36.446Z,310.34
2019-03-24T02:15:36.399Z,310.81
2019-03-24T02:16:36.410Z,310.95
2019-03-24T02:17:36.374Z,317.27
2019-03-24T02:18:36.370Z,317.84
2019-03-24T02:19:36.384Z,317.59
2019-03-24T02:20:36.343Z,317.23
2019-03-24T02:21:36.322Z,311.63
2019-03-24T02:22:36.322Z,317.47
2019-03-24T02:23:36.297Z,312.08
2019-03-24T02:24:36.331Z,317.29
2019-03-24T02:25:36.292Z,317.68
2019-03-24T02:26:36.284Z,317.10
2019-03-24T02:27:36.271Z,317.31
2019-03-24T02:28:36.260Z,317.39
2019-03-24T02:29:36.235Z,316.53
2019-03-24T02:30:36.258Z,315.25
2019-03-24T02:31:36.217Z,314.97
2019-03-24T02:32:36.306Z,314.10
2019-03-24T02:33:36.212Z,312.80
2019-03-24T02:34:36.203Z,312.20
2019-03-24T02:35:36.197Z,311.88
2019-03-24T02:36:36.172Z,311.62
2019-03-24T02:37:36.183Z,310.33
2019-03-24T02:38:36.144Z,310.11
2019-03-24T02:39:36.127Z,309.71
2019-03-24T02:40:36.137Z,310.45
2019-03-24T02:41:36.107Z,310.29
2019-03-24T02:42:36.111Z,310.35
2019-03-24T02:43:36.105Z,310.24
2019-03-24T02:44:36.068Z,309.58
2019-03-24T02:45:36.088Z,310.35
2019-03-24T02:46:36.053Z,311.45
2019-03-24T02:47:36.046Z,312.03
2019-03-24T02:48:36.032Z,312.55
2019-03-24T02:49:36.029Z,316.09
2019-03-24T02:50:36.065Z,316.95
2019-03-24T02:51:36.014Z,316.79
2019-03-24T02:52:36.010Z,316.92
2019-03-24T02:53:36.020Z,317.94
2019-03-24T02:54:35.981Z,317.71
2019-03-24T02:55:35.952Z,318.07
2019-03-24T02:56:35.977Z,318.18
2019-03-24T02:57:35.926Z,317.67
2019-03-24T02:58:35.932Z,318.98
2019-03-24T02:59:35.928Z,318.30
2019-03-24T03:00:35.915Z,317.86
2019-03-24T03:01:35.923Z,317.80
2019-03-24T03:02:35.876Z,317.05
2019-03-24T03:03:35.868Z,317.08
2019-03-24T03:04:35.861Z,317.42
2019-03-24T03:05:35.842Z,316.97
2019-03-24T03:06:35.835Z,316.11
2019-03-24T03:07:35.837Z,316.38
2019-03-24T03:08:35.808Z,316.39
2019-03-24T03:09:35.801Z,316.08
2019-03-24T03:10:35.831Z,316.20
2019-03-24T03:11:35.783Z,315.30
2019-03-24T03:12:35.811Z,315.49
2019-03-24T03:13:35.752Z,314.31
2019-03-24T03:14:35.747Z,312.75
2019-03-24T03:15:35.747Z,311.91
2019-03-24T03:16:38.852Z,311.78
2019-03-24T03:17:35.715Z,311.22
2019-03-24T03:18:35.763Z,311.55
2019-03-24T03:19:35.698Z,311.80
2019-03-24T03:20:35.682Z,311.93
2019-03-24T03:21:35.669Z,311.71
2019-03-24T03:22:35.666Z,312.30
2019-03-24T03:23:35.676Z,313.21
2019-03-24T03:24:35.642Z,313.81
2019-03-24T03:25:35.630Z,314.44
2019-03-24T03:26:35.613Z,315.37
2019-03-24T03:27:35.607Z,315.65
2019-03-24T03:28:35.607Z,315.92
2019-03-24T03:29:35.573Z,316.33
2019-03-24T03:30:35.566Z,316.23
2019-03-24T03:31:35.561Z,316.04
2019-03-24T03:32:35.552Z,316.21
2019-03-24T03:33:35.576Z,316.87
2019-03-24T03:34:35.516Z,316.18
2019-03-24T03:35:35.537Z,317.01
2019-03-24T03:36:35.512Z,315.63
2019-03-24T03:37:35.483Z,314.49
2019-03-24T03:38:35.501Z,314.24
2019-03-24T03:39:35.476Z,313.26
2019-03-24T03:40:35.465Z,312.58
2019-03-24T03:41:35.449Z,312.80
2019-03-24T03:42:35.427Z,312.85
2019-03-24T03:43:35.453Z,312.65
2019-03-24T03:44:35.413Z,312.40
2019-03-24T03:45:35.410Z,311.93
2019-03-24T03:46:35.401Z,312.48
2019-03-24T03:47:35.402Z,312.37
2019-03-24T03:48:35.405Z,311.40
2019-03-24T03:49:35.354Z,311.88
2019-03-24T03:50:35.347Z,312.74
2019-03-24T03:51:35.335Z,312.58
2019-03-24T03:52:35.321Z,312.36
2019-03-24T03:53:35.370Z,312.63
2019-03-24T03:54:35.308Z,312.06
2019-03-24T03:55:35.286Z,311.52
2019-03-24T03:56:35.328Z,312.32
2019-03-24T03:57:35.265Z,312.56
2019-03-24T03:58:35.259Z,312.41
2019-03-24T03:59:35.282Z,312.52
2019-03-24T04:00:35.259Z,312.55
2019-03-24T04:01:35.251Z,312.54
2019-03-24T04:02:35.232Z,312.35
2019-03-24T04:03:35.203Z,312.96
2019-03-24T04:04:35.213Z,312.74
2019-03-24T04:05:35.183Z,312.70
2019-03-24T04:06:35.170Z,312.07
2019-03-24T04:07:35.154Z,311.78
2019-03-24T04:08:35.152Z,311.96
2019-03-24T04:09:35.154Z,312.05
2019-03-24T04:10:35.115Z,311.84
2019-03-24T04:11:35.115Z,311.52
2019-03-24T04:12:35.115Z,312.59
2019-03-24T04:13:35.087Z,314.25
2019-03-24T04:14:35.105Z,313.84
2019-03-24T04:15:35.070Z,312.88
2019-03-24T04:16:35.050Z,312.54
2019-03-24T04:17:35.043Z,312.05
2019-03-24T04:18:35.039Z,312.96
2019-03-24T04:19:35.049Z,313.70
2019-03-24T04:20:35.018Z,314.90
2019-03-24T04:21:34.993Z,315.75
2019-03-24T04:22:34.997Z,315.53
2019-03-24T04:23:34.999Z,315.28
2019-03-24T04:24:34.986Z,315.38
2019-03-24T04:25:34.973Z,314.99
2019-03-24T04:26:34.944Z,314.51
2019-03-24T04:27:34.939Z,314.46
2019-03-24T04:28:34.925Z,314.16
2019-03-24T04:29:34.926Z,313.10
2019-03-24T04:30:34.890Z,313.34
2019-03-24T04:31:34.894Z,314.47
2019-03-24T04:32:34.872Z,314.09
2019-03-24T04:33:34.865Z,315.47
2019-03-24T04:34:34.874Z,316.08
2019-03-24T04:35:34.853Z,315.99
2019-03-24T04:36:34.840Z,315.79
2019-03-24T04:37:34.826Z,316.12
2019-03-24T04:38:34.809Z,315.32
2019-03-24T04:39:34.813Z,313.98
2019-03-24T04:40:34.800Z,314.32
2019-03-24T04:41:34.775Z,313.95
2019-03-24T04:42:34.775Z,312.38
2019-03-24T04:43:34.773Z,312.00
2019-03-24T04:44:34.771Z,311.64
2019-03-24T04:45:34.736Z,311.84
2019-03-24T04:46:34.731Z,311.31
2019-03-24T04:47:34.706Z,311.68
2019-03-24T04:48:34.702Z,311.61
2019-03-24T04:49:34.691Z,311.49
2019-03-24T04:50:34.710Z,312.43
2019-03-24T04:51:34.665Z,311.81
2019-03-24T04:52:34.656Z,311.83
2019-03-24T04:53:34.649Z,312.92
2019-03-24T04:54:34.637Z,312.56
2019-03-24T04:55:34.643Z,314.08
2019-03-24T04:56:34.614Z,314.38
2019-03-24T04:57:34.601Z,314.31
2019-03-24T04:58:34.587Z,314.82
2019-03-24T04:59:34.577Z,314.97
2019-03-24T05:00:34.597Z,314.68
2019-03-24T05:01:34.553Z,314.68
2019-03-24T05:02:34.555Z,314.77
2019-03-24T05:03:34.541Z,315.12
2019-03-24T05:04:34.531Z,316.00
2019-03-24T05:05:34.547Z,316.08
2019-03-24T05:06:34.506Z,316.22
2019-03-24T05:07:34.512Z,315.72
2019-03-24T05:08:34.475Z,315.68
2019-03-24T05:09:34.475Z,316.38
2019-03-24T05:10:34.483Z,316.24
2019-03-24T05:11:34.445Z,316.47
2019-03-24T05:12:34.434Z,316.95
2019-03-24T05:13:34.433Z,317.18
2019-03-24T05:14:34.419Z,316.61
2019-03-24T05:15:34.424Z,317.41
2019-03-24T05:16:34.393Z,317.33
2019-03-24T05:17:34.377Z,317.34
2019-03-24T05:18:34.363Z,317.03
2019-03-24T05:19:34.352Z,316.64
2019-03-24T05:20:34.370Z,316.55
2019-03-24T05:21:34.331Z,316.46
2019-03-24T05:22:34.328Z,317.18
2019-03-24T05:23:34.311Z,317.51
2019-03-24T05:24:34.296Z,317.04
2019-03-24T05:25:34.327Z,316.83
2019-03-24T05:26:34.281Z,316.71
2019-03-24T05:27:34.276Z,316.58
2019-03-24T05:28:34.259Z,315.82
2019-03-24T05:29:34.255Z,314.84
2019-03-24T05:30:34.231Z,314.04
2019-03-24T05:31:34.253Z,313.94
2019-03-24T05:32:34.220Z,313.52
2019-03-24T05:33:34.207Z,313.92
2019-03-24T05:34:34.202Z,315.06
2019-03-24T05:35:34.187Z,317.16
2019-03-24T05:36:34.191Z,318.23
2019-03-24T05:37:34.169Z,317.25
2019-03-24T05:38:34.158Z,317.21
2019-03-24T05:39:34.146Z,316.01
2019-03-24T05:40:34.124Z,316.74
2019-03-24T05:41:34.135Z,315.95
2019-03-24T05:42:34.110Z,316.03
2019-03-24T05:43:34.086Z,315.67
2019-03-24T05:44:34.088Z,316.13
2019-03-24T05:45:34.073Z,316.95
2019-03-24T05:46:34.085Z,316.77
2019-03-24T05:47:37.282Z,317.12
2019-03-24T05:48:34.030Z,317.18
2019-03-24T05:49:34.039Z,317.27
2019-03-24T05:50:34.012Z,317.11
2019-03-24T05:51:34.028Z,316.79
2019-03-24T05:52:33.995Z,316.14
2019-03-24T05:53:33.992Z,308.70
2019-03-24T05:54:33.985Z,314.12
2019-03-24T05:55:33.968Z,307.58
2019-03-24T05:56:33.957Z,312.95
2019-03-24T05:57:33.935Z,306.65
2019-03-24T05:58:33.942Z,312.59
2019-03-24T05:59:33.907Z,306.60
2019-03-24T06:00:33.907Z,312.30
2019-03-24T06:01:33.901Z,305.92
2019-03-24T06:02:33.882Z,311.83
2019-03-24T06:03:33.866Z,305.76
2019-03-24T06:04:33.865Z,312.06
2019-03-24T06:05:33.857Z,306.03
2019-03-24T06:06:33.852Z,306.07
2019-03-24T06:07:33.821Z,306.14
2019-03-24T06:08:35.798Z,307.78
2019-03-24T06:09:33.813Z,309.22
2019-03-24T06:10:33.805Z,310.14
2019-03-24T06:11:33.777Z,310.34
2019-03-24T06:12:33.787Z,309.24
2019-03-24T06:13:33.759Z,308.62
2019-03-24T06:14:33.768Z,314.15
2019-03-24T06:15:33.733Z,306.66
2019-03-24T06:16:33.717Z,312.80
2019-03-24T06:17:33.743Z,306.51
2019-03-24T06:18:33.700Z,311.50
2019-03-24T06:19:33.695Z,306.27
2019-03-24T06:20:33.692Z,312.01
2019-03-24T06:21:33.673Z,312.01
2019-03-24T06:22:33.693Z,312.23
2019-03-24T06:23:33.658Z,311.58
2019-03-24T06:24:33.642Z,312.21
2019-03-24T06:25:35.040Z,311.25
2019-03-24T06:26:33.608Z,310.93
2019-03-24T06:27:33.625Z,311.11
2019-03-24T06:28:33.594Z,311.21
2019-03-24T06:29:33.586Z,310.91
2019-03-24T06:30:33.584Z,310.76
2019-03-24T06:31:33.562Z,311.04
2019-03-24T06:32:33.563Z,311.05
2019-03-24T06:33:33.535Z,310.89
2019-03-24T06:34:33.516Z,310.82
2019-03-24T06:35:33.515Z,305.01
2019-03-24T06:36:33.495Z,311.39
2019-03-24T06:37:33.511Z,305.46
2019-03-24T06:38:33.483Z,311.12
2019-03-24T06:39:33.472Z,304.91
2019-03-24T06:40:33.450Z,305.32
2019-03-24T06:41:33.464Z,305.21
2019-03-24T06:42:33.451Z,310.95
2019-03-24T06:43:33.414Z,305.16
2019-03-24T06:44:33.422Z,311.45
2019-03-24T06:45:33.400Z,305.59
2019-03-24T06:46:33.386Z,311.05
2019-03-24T06:47:33.411Z,305.86
2019-03-24T06:48:33.382Z,311.31
2019-03-24T06:49:33.361Z,305.08
2019-03-24T06:50:33.350Z,311.14
2019-03-24T06:51:33.338Z,304.90
2019-03-24T06:52:33.363Z,311.62
2019-03-24T06:53:33.324Z,311.30
2019-03-24T06:54:33.433Z,311.17
2019-03-24T06:55:33.290Z,305.51
2019-03-24T06:56:33.316Z,311.33
2019-03-24T06:57:33.311Z,310.70
2019-03-24T06:58:33.274Z,311.01
2019-03-24T06:59:33.263Z,311.21
2019-03-24T07:00:33.244Z,312.07
2019-03-24T07:01:33.223Z,311.22
2019-03-24T07:02:33.205Z,311.65
2019-03-24T07:03:33.231Z,311.47
2019-03-24T07:04:33.185Z,311.86
2019-03-24T07:05:33.187Z,305.38
2019-03-24T07:06:34.803Z,310.63
2019-03-24T07:07:33.152Z,305.50
2019-03-24T07:08:33.163Z,311.53
2019-03-24T07:09:33.136Z,306.16
2019-03-24T07:10:33.122Z,311.38
2019-03-24T07:11:33.120Z,305.43
2019-03-24T07:12:33.105Z,311.12
2019-03-24T07:13:33.106Z,305.22
2019-03-24T07:14:33.088Z,311.37
2019-03-24T07:15:33.077Z,305.11
2019-03-24T07:16:33.058Z,311.04
2019-03-24T07:17:33.053Z,306.05
2019-03-24T07:18:33.068Z,311.30
2019-03-24T07:19:33.028Z,311.16
2019-03-24T07:20:33.007Z,311.18
2019-03-24T07:21:33.052Z,304.86
2019-03-24T07:22:32.991Z,311.19
2019-03-24T07:23:32.998Z,305.23
2019-03-24T07:24:32.959Z,310.95
2019-03-24T07:25:32.966Z,304.40
2019-03-24T07:26:32.945Z,311.10
2019-03-24T07:27:32.942Z,305.19
2019-03-24T07:28:32.955Z,311.08
2019-03-24T07:29:32.913Z,305.53
2019-03-24T07:30:32.910Z,311.79
2019-03-24T07:31:32.894Z,310.77
2019-03-24T07:32:32.881Z,311.29
2019-03-24T07:33:32.889Z,304.58
2019-03-24T07:34:32.857Z,310.89
2019-03-24T07:35:32.859Z,304.91
2019-03-24T07:36:32.832Z,305.41
2019-03-24T07:37:32.829Z,304.84
2019-03-24T07:38:32.841Z,305.32
2019-03-24T07:39:32.813Z,304.80
2019-03-24T07:40:32.799Z,304.33
2019-03-24T07:41:32.787Z,305.05
2019-03-24T07:42:32.799Z,311.00
2019-03-24T07:43:32.768Z,305.18
2019-03-24T07:44:32.782Z,310.92
2019-03-24T07:45:32.736Z,305.40
2019-03-24T07:46:32.764Z,310.97
2019-03-24T07:47:32.708Z,305.14
2019-03-24T07:48:32.711Z,311.36
2019-03-24T07:49:32.713Z,304.93
2019-03-24T07:50:32.679Z,310.69
2019-03-24T07:51:32.668Z,304.23
2019-03-24T07:52:32.668Z,310.32
2019-03-24T07:53:32.644Z,303.83
2019-03-24T07:54:32.645Z,309.96
2019-03-24T07:55:32.620Z,303.92
2019-03-24T07:56:32.648Z,309.91
2019-03-24T07:57:32.620Z,304.35
2019-03-24T07:58:32.605Z,310.09
2019-03-24T07:59:32.602Z,304.73
2019-03-24T08:00:32.574Z,310.39
2019-03-24T08:01:32.568Z,310.35
2019-03-24T08:02:32.554Z,310.39
2019-03-24T08:03:32.544Z,304.87
2019-03-24T08:04:32.559Z,310.65
2019-03-24T08:05:32.526Z,304.66
2019-03-24T08:06:32.518Z,304.45
2019-03-24T08:07:32.493Z,304.25
2019-03-24T08:08:32.477Z,310.75
2019-03-24T08:09:32.489Z,304.58
2019-03-24T08:10:32.475Z,304.90
2019-03-24T08:11:32.460Z,304.77
2019-03-24T08:12:32.435Z,305.10
2019-03-24T08:13:32.419Z,304.96
2019-03-24T08:14:32.447Z,310.35
2019-03-24T08:15:32.407Z,304.76
2019-03-24T08:16:32.406Z,309.80
2019-03-24T08:17:32.399Z,304.47
2019-03-24T08:18:32.379Z,310.76
2019-03-24T08:19:32.385Z,304.89
2019-03-24T08:20:32.348Z,310.29
2019-03-24T08:21:32.336Z,304.61
2019-03-24T08:22:32.335Z,310.38
2019-03-24T08:23:32.319Z,304.59
2019-03-24T08:24:32.332Z,310.94
2019-03-24T08:25:32.297Z,304.74
2019-03-24T08:26:32.295Z,310.48
2019-03-24T08:27:32.274Z,304.31
2019-03-24T08:28:32.253Z,310.93
2019-03-24T08:29:32.267Z,304.95
2019-03-24T08:30:32.234Z,310.66
2019-03-24T08:31:32.231Z,304.38
2019-03-24T08:32:32.223Z,309.50
2019-03-24T08:33:32.200Z,304.60
2019-03-24T08:34:32.219Z,310.60
2019-03-24T08:35:32.189Z,304.22
2019-03-24T08:36:32.169Z,304.27
2019-03-24T08:37:32.165Z,304.46
2019-03-24T08:38:32.141Z,304.99
2019-03-24T08:39:32.159Z,305.05
2019-03-24T08:40:32.128Z,304.81
2019-03-24T08:41:32.114Z,304.92
2019-03-24T08:42:32.098Z,310.97
2019-03-24T08:43:32.103Z,305.32
2019-03-24T08:44:32.088Z,310.37
2019-03-24T08:45:32.098Z,305.11
2019-03-24T08:46:32.063Z,310.55
2019-03-24T08:47:32.046Z,305.24
2019-03-24T08:48:40.435Z,310.86
2019-03-24T08:49:33.061Z,305.30
2019-03-24T08:50:32.058Z,310.75
2019-03-24T08:51:32.030Z,304.50
2019-03-24T08:52:31.988Z,310.08
2019-03-24T08:53:31.971Z,303.58
2019-03-24T08:54:31.972Z,309.13
2019-03-24T08:55:31.981Z,303.55
2019-03-24T08:56:31.966Z,309.56
2019-03-24T08:57:32.571Z,303.50
2019-03-24T08:58:31.926Z,308.75
2019-03-24T08:59:31.914Z,303.25
2019-03-24T09:00:31.929Z,308.81
2019-03-24T09:01:31.897Z,303.13
2019-03-24T09:02:31.897Z,309.07
2019-03-24T09:03:32.720Z,304.19
2019-03-24T09:04:31.858Z,309.71
2019-03-24T09:05:33.694Z,303.40
2019-03-24T09:06:31.839Z,303.36
2019-03-24T09:07:31.854Z,304.17
2019-03-24T09:08:31.824Z,310.15
2019-03-24T09:09:31.826Z,303.60
2019-03-24T09:10:31.870Z,304.15
2019-03-24T09:11:31.793Z,303.49
2019-03-24T09:12:31.771Z,309.65
2019-03-24T09:13:31.787Z,303.77
2019-03-24T09:14:31.755Z,309.64
2019-03-24T09:15:31.753Z,304.13
2019-03-24T09:16:31.728Z,309.74
2019-03-24T09:17:31.742Z,304.02
2019-03-24T09:18:31.730Z,309.83
2019-03-24T09:19:31.705Z,310.04
2019-03-24T09:20:41.182Z,310.12
2019-03-24T09:21:32.666Z,304.20
2019-03-24T09:22:31.658Z,309.65
2019-03-24T09:23:31.667Z,304.15
2019-03-24T09:24:31.639Z,309.20
2019-03-24T09:25:31.707Z,304.11
2019-03-24T09:26:31.672Z,309.76
2019-03-24T09:27:31.627Z,304.04
2019-03-24T09:28:31.593Z,310.34
2019-03-24T09:29:31.584Z,310.46
2019-03-24T09:30:31.609Z,310.80
2019-03-24T09:31:31.569Z,311.09
2019-03-24T09:32:31.564Z,310.28
2019-03-24T09:33:31.551Z,310.53
2019-03-24T09:34:31.559Z,311.35
2019-03-24T09:35:31.596Z,304.90
2019-03-24T09:36:31.510Z,309.55
2019-03-24T09:37:31.495Z,304.05
2019-03-24T09:38:31.501Z,310.14
2019-03-24T09:39:31.492Z,304.08
2019-03-24T09:40:31.479Z,309.69
2019-03-24T09:41:31.456Z,304.37
2019-03-24T09:42:31.439Z,310.25
2019-03-24T09:43:31.425Z,305.02
2019-03-24T09:44:31.458Z,309.88
2019-03-24T09:45:31.438Z,302.77
2019-03-24T09:46:31.407Z,309.10
2019-03-24T09:47:31.392Z,302.89
2019-03-24T09:48:31.390Z,308.65
2019-03-24T09:49:31.373Z,308.58
2019-03-24T09:50:31.363Z,309.15
2019-03-24T09:51:31.364Z,309.39
2019-03-24T09:52:31.334Z,308.90
2019-03-24T09:53:31.321Z,309.59
2019-03-24T09:54:31.324Z,308.59
2019-03-24T09:55:31.307Z,307.99
2019-03-24T09:56:31.301Z,307.28
2019-03-24T09:57:31.283Z,306.21
2019-03-24T09:58:31.265Z,309.10
2019-03-24T09:59:31.269Z,308.90
2019-03-24T10:00:31.241Z,309.20
2019-03-24T10:01:31.263Z,309.67
2019-03-24T10:02:31.236Z,308.85
2019-03-24T10:03:31.219Z,310.55
2019-03-24T10:04:31.198Z,310.85
2019-03-24T10:05:31.215Z,307.71
2019-03-24T10:06:31.201Z,309.31
2019-03-24T10:07:31.179Z,310.72
2019-03-24T10:08:31.152Z,309.97
2019-03-24T10:09:31.150Z,309.93
2019-03-24T10:10:31.150Z,309.02
2019-03-24T10:11:31.157Z,310.61
2019-03-24T10:12:31.106Z,307.58
2019-03-24T10:13:31.096Z,309.60
2019-03-24T10:14:31.091Z,309.46
2019-03-24T10:15:31.081Z,310.25
2019-03-24T10:16:31.074Z,308.90
2019-03-24T10:17:31.051Z,309.10
2019-03-24T10:18:31.081Z,308.88
2019-03-24T10:19:31.031Z,309.30
2019-03-24T10:20:31.022Z,309.98
2019-03-24T10:21:31.044Z,309.86
2019-03-24T10:22:31.009Z,309.52
2019-03-24T10:23:30.985Z,309.75
2019-03-24T10:24:30.976Z,309.81
2019-03-24T10:25:30.963Z,309.69
2019-03-24T10:26:30.973Z,309.67
2019-03-24T10:27:30.947Z,309.30
2019-03-24T10:28:30.940Z,309.42
2019-03-24T10:29:30.925Z,308.78
2019-03-24T10:30:30.913Z,307.85
2019-03-24T10:31:30.936Z,309.09
2019-03-24T10:32:30.883Z,308.27
2019-03-24T10:33:30.885Z,308.04
2019-03-24T10:34:30.877Z,308.36
2019-03-24T10:35:30.853Z,309.73
2019-03-24T10:36:30.859Z,308.42
2019-03-24T10:37:30.827Z,307.69
2019-03-24T10:38:30.833Z,307.98
2019-03-24T10:39:32.006Z,309.15
2019-03-24T10:40:30.802Z,309.35
2019-03-24T10:41:30.809Z,308.62
2019-03-24T10:42:30.788Z,306.87
2019-03-24T10:43:30.783Z,308.92
2019-03-24T10:44:30.758Z,305.62
2019-03-24T10:45:30.742Z,310.60
2019-03-24T10:46:30.752Z,308.41
2019-03-24T10:47:30.723Z,310.29
2019-03-24T10:48:33.824Z,307.81
2019-03-24T10:49:30.756Z,307.37
2019-03-24T10:50:30.706Z,307.35
2019-03-24T10:51:30.732Z,308.32
2019-03-24T10:52:30.664Z,309.81
2019-03-24T10:53:30.673Z,308.85
2019-03-24T10:54:30.653Z,309.95
2019-03-24T10:55:30.646Z,309.85
2019-03-24T10:56:30.654Z,308.54
2019-03-24T10:57:30.625Z,308.94
2019-03-24T10:58:30.633Z,307.82
2019-03-24T10:59:30.598Z,309.04
2019-03-24T11:00:30.583Z,309.62
2019-03-24T11:01:30.643Z,307.36
2019-03-24T11:02:30.585Z,308.93
2019-03-24T11:03:30.590Z,308.24
2019-03-24T11:04:30.536Z,309.60
2019-03-24T11:05:30.526Z,306.41
2019-03-24T11:06:30.515Z,307.62
2019-03-24T11:07:30.584Z,308.36
2019-03-24T11:08:30.483Z,309.20
2019-03-24T11:09:30.469Z,309.21
2019-03-24T11:10:30.532Z,310.63
2019-03-24T11:11:30.500Z,313.11
2019-03-24T11:12:30.482Z,311.76
2019-03-24T11:13:30.447Z,310.50
2019-03-24T11:14:30.415Z,309.40
2019-03-24T11:15:30.398Z,309.76
2019-03-24T11:16:30.416Z,308.29
2019-03-24T11:17:30.433Z,308.92
2019-03-24T11:18:30.393Z,309.17
2019-03-24T11:19:35.690Z,309.01
2019-03-24T11:20:31.358Z,308.84
2019-03-24T11:21:30.347Z,310.01
2019-03-24T11:22:30.352Z,310.91
2019-03-24T11:23:30.332Z,312.11
2019-03-24T11:24:30.338Z,310.46
2019-03-24T11:25:30.300Z,310.55
2019-03-24T11:26:30.290Z,310.40
2019-03-24T11:27:31.188Z,304.11
2019-03-24T11:28:30.266Z,310.14
2019-03-24T11:29:30.282Z,309.54
2019-03-24T11:30:30.237Z,304.02
2019-03-24T11:31:30.216Z,301.36
2019-03-24T11:32:30.238Z,309.46
2019-03-24T11:33:30.209Z,303.59
2019-03-24T11:34:30.206Z,308.18
2019-03-24T11:35:30.183Z,302.49
2019-03-24T11:36:30.173Z,308.49
2019-03-24T11:37:30.168Z,308.91
2019-03-24T11:38:30.139Z,308.12
2019-03-24T11:39:30.146Z,307.71
2019-03-24T11:40:30.129Z,307.08
2019-03-24T11:41:30.120Z,308.34
2019-03-24T11:42:30.153Z,312.14
2019-03-24T11:43:30.105Z,305.64
2019-03-24T11:44:30.085Z,311.82
2019-03-24T11:45:30.082Z,307.14
2019-03-24T11:46:30.069Z,308.36
2019-03-24T11:47:30.062Z,301.82
2019-03-24T11:48:30.046Z,309.74
2019-03-24T11:49:30.044Z,302.75
2019-03-24T11:50:30.049Z,307.43
2019-03-24T11:51:30.013Z,302.08
2019-03-24T11:52:30.082Z,306.64
2019-03-24T11:53:29.988Z,300.48
2019-03-24T11:54:29.971Z,306.89
2019-03-24T11:55:29.962Z,300.65
2019-03-24T11:56:29.961Z,307.19
2019-03-24T11:57:29.960Z,302.14
2019-03-24T11:58:29.924Z,302.91
2019-03-24T11:59:29.923Z,300.56
2019-03-24T12:00:29.925Z,301.08
2019-03-24T12:01:38.017Z,300.52
2019-03-24T12:02:30.920Z,302.70
2019-03-24T12:03:29.876Z,302.32
2019-03-24T12:04:29.865Z,308.60
2019-03-24T12:05:29.854Z,302.78
2019-03-24T12:06:29.842Z,302.74
2019-03-24T12:07:29.852Z,303.40
2019-03-24T12:08:29.817Z,302.65
2019-03-24T12:09:29.796Z,301.23
2019-03-24T12:10:29.798Z,308.93
2019-03-24T12:11:29.782Z,301.94
2019-03-24T12:12:29.838Z,306.69
2019-03-24T12:13:29.768Z,302.62
2019-03-24T12:14:29.765Z,307.50
2019-03-24T12:15:29.753Z,302.59
2019-03-24T12:16:29.745Z,308.83
2019-03-24T12:17:29.743Z,300.67
2019-03-24T12:18:29.717Z,309.00
2019-03-24T12:19:29.699Z,306.48
2019-03-24T12:20:29.698Z,307.38
2019-03-24T12:21:29.667Z,303.99
2019-03-24T12:22:29.687Z,307.53
2019-03-24T12:23:29.661Z,302.87
2019-03-24T12:24:29.638Z,306.87
2019-03-24T12:25:29.628Z,309.02
2019-03-24T12:26:29.633Z,308.24
2019-03-24T12:27:29.626Z,301.32
2019-03-24T12:28:29.599Z,302.41